TAP1938 LPPT-LPPR
Flight info
| Callsign | TAP1938 |
|---|---|
| Flight time | 0h 36m |
| Altitude | 22000 |
| Route | IXIDA DCT ABLEG |
| Aircraft | E190/M-SDE3GILORVW/S |
Departure
| Time | 2026-05-06 20:25 |
|---|---|
| Airport | Lisbon Humberto Delgado Airport (LPPT) |
Arrival
| Time | 2026-05-06 21:02 |
|---|---|
| Airport | Francisco de Sá Carneiro Airport (LPPR) |
| Time | Latitude | Longitude | Altitude | Speed | Heading |
|---|---|---|---|---|---|
| 2026-05-06 20:06 | 38.76564 | -9.13397 | 352 ft | 0 kts | 73° |
| 2026-05-06 20:16 | 38.76563 | -9.13400 | 343 ft | 2 kts | 73° |
| 2026-05-06 20:16 | 38.76554 | -9.13430 | 351 ft | 4 kts | 49° |
| 2026-05-06 20:17 | 38.76534 | -9.13448 | 353 ft | 4 kts | 358° |
| 2026-05-06 20:17 | 38.76525 | -9.13447 | 351 ft | 3 kts | 344° |
| 2026-05-06 20:20 | 38.76527 | -9.13448 | 352 ft | 1 kts | 343° |
| 2026-05-06 20:20 | 38.76543 | -9.13454 | 355 ft | 5 kts | 344° |
| 2026-05-06 20:20 | 38.76590 | -9.13471 | 345 ft | 9 kts | 343° |
| 2026-05-06 20:20 | 38.76643 | -9.13519 | 347 ft | 10 kts | 285° |
| 2026-05-06 20:21 | 38.76631 | -9.13629 | 349 ft | 15 kts | 258° |
| 2026-05-06 20:21 | 38.76605 | -9.13785 | 344 ft | 19 kts | 258° |
| 2026-05-06 20:21 | 38.76581 | -9.13938 | 347 ft | 14 kts | 258° |
| 2026-05-06 20:21 | 38.76536 | -9.14042 | 345 ft | 14 kts | 230° |
| 2026-05-06 20:22 | 38.76495 | -9.14155 | 344 ft | 16 kts | 270° |
| 2026-05-06 20:22 | 38.76518 | -9.14244 | 336 ft | 0 kts | 292° |
| 2026-05-06 20:22 | 38.76524 | -9.14262 | 337 ft | 5 kts | 293° |
| 2026-05-06 20:23 | 38.76538 | -9.14305 | 335 ft | 0 kts | 292° |
| 2026-05-06 20:24 | 38.76538 | -9.14306 | 335 ft | 1 kts | 292° |
| 2026-05-06 20:24 | 38.76555 | -9.14358 | 333 ft | 11 kts | 296° |
| 2026-05-06 20:24 | 38.76629 | -9.14395 | 335 ft | 13 kts | 16° |
| 2026-05-06 20:24 | 38.76772 | -9.14322 | 337 ft | 52 kts | 22° |
| 2026-05-06 20:25 | 38.77385 | -9.14009 | 362 ft | 135 kts | 18° |
| 2026-05-06 20:25 | 38.78400 | -9.13492 | 887 ft | 172 kts | 17° |
| 2026-05-06 20:25 | 38.79633 | -9.12849 | 1692 ft | 210 kts | 20° |
| 2026-05-06 20:25 | 38.80997 | -9.11931 | 2786 ft | 220 kts | 28° |
| 2026-05-06 20:26 | 38.82252 | -9.10909 | 3361 ft | 215 kts | 29° |
| 2026-05-06 20:26 | 38.83546 | -9.09889 | 4149 ft | 222 kts | 28° |
| 2026-05-06 20:26 | 38.84904 | -9.08872 | 4883 ft | 230 kts | 28° |
| 2026-05-06 20:26 | 38.86317 | -9.07845 | 5621 ft | 236 kts | 28° |
| 2026-05-06 20:27 | 38.87767 | -9.06808 | 6346 ft | 241 kts | 29° |
| 2026-05-06 20:27 | 38.89240 | -9.05745 | 7009 ft | 245 kts | 31° |
| 2026-05-06 20:27 | 38.90624 | -9.04444 | 7642 ft | 248 kts | 40° |
| 2026-05-06 20:27 | 38.91896 | -9.02929 | 8277 ft | 251 kts | 44° |
| 2026-05-06 20:28 | 38.93167 | -9.01370 | 8892 ft | 255 kts | 43° |
| 2026-05-06 20:28 | 38.94553 | -8.99941 | 9518 ft | 258 kts | 30° |
| 2026-05-06 20:28 | 38.96192 | -8.99088 | 10131 ft | 259 kts | 16° |
| 2026-05-06 20:28 | 38.97939 | -8.98478 | 10736 ft | 261 kts | 13° |
| 2026-05-06 20:29 | 38.99716 | -8.97911 | 11347 ft | 264 kts | 12° |
| 2026-05-06 20:29 | 39.01513 | -8.97336 | 11968 ft | 267 kts | 13° |
| 2026-05-06 20:29 | 39.03325 | -8.96751 | 12604 ft | 270 kts | 12° |
| 2026-05-06 20:29 | 39.05163 | -8.96156 | 13260 ft | 273 kts | 12° |
| 2026-05-06 20:30 | 39.07019 | -8.95552 | 13916 ft | 277 kts | 12° |
| 2026-05-06 20:30 | 39.10817 | -8.94317 | 15121 ft | 285 kts | 12° |
| 2026-05-06 20:30 | 39.12756 | -8.93688 | 15726 ft | 288 kts | 12° |
| 2026-05-06 20:31 | 39.14719 | -8.93052 | 16318 ft | 292 kts | 12° |
| 2026-05-06 20:31 | 39.16700 | -8.92416 | 16893 ft | 295 kts | 12° |
| 2026-05-06 20:31 | 39.18708 | -8.91768 | 17473 ft | 299 kts | 12° |
| 2026-05-06 20:31 | 39.20709 | -8.91123 | 18076 ft | 302 kts | 12° |
| 2026-05-06 20:32 | 39.22754 | -8.90465 | 18599 ft | 305 kts | 12° |
| 2026-05-06 20:32 | 39.24822 | -8.89800 | 19113 ft | 307 kts | 12° |
| 2026-05-06 20:32 | 39.26900 | -8.89134 | 19612 ft | 309 kts | 12° |
| 2026-05-06 20:32 | 39.28993 | -8.88464 | 20110 ft | 311 kts | 12° |
| 2026-05-06 20:33 | 39.31102 | -8.87789 | 20584 ft | 314 kts | 12° |
| 2026-05-06 20:33 | 39.33231 | -8.87112 | 21043 ft | 316 kts | 12° |
| 2026-05-06 20:33 | 39.35375 | -8.86429 | 21491 ft | 319 kts | 12° |
| 2026-05-06 20:33 | 39.37540 | -8.85739 | 21808 ft | 326 kts | 12° |
| 2026-05-06 20:34 | 39.39779 | -8.85038 | 21996 ft | 335 kts | 12° |
| 2026-05-06 20:34 | 39.42096 | -8.84318 | 21996 ft | 348 kts | 12° |
| 2026-05-06 20:34 | 39.44491 | -8.83578 | 22025 ft | 360 kts | 12° |
| 2026-05-06 20:34 | 39.46962 | -8.82812 | 21992 ft | 370 kts | 12° |
| 2026-05-06 20:35 | 39.49507 | -8.82024 | 21965 ft | 379 kts | 12° |
| 2026-05-06 20:35 | 39.52096 | -8.81222 | 21962 ft | 385 kts | 12° |
| 2026-05-06 20:35 | 39.54723 | -8.80405 | 21959 ft | 391 kts | 12° |
| 2026-05-06 20:35 | 39.57378 | -8.79577 | 21959 ft | 395 kts | 12° |
| 2026-05-06 20:36 | 39.60063 | -8.78740 | 21952 ft | 398 kts | 12° |
| 2026-05-06 20:36 | 39.62731 | -8.77908 | 21957 ft | 400 kts | 12° |
| 2026-05-06 20:36 | 39.65479 | -8.77051 | 21955 ft | 402 kts | 12° |
| 2026-05-06 20:36 | 39.68160 | -8.76213 | 21948 ft | 389 kts | 12° |
| 2026-05-06 20:37 | 39.70661 | -8.75427 | 21902 ft | 353 kts | 12° |
| 2026-05-06 20:37 | 39.72948 | -8.74710 | 21832 ft | 324 kts | 12° |
| 2026-05-06 20:37 | 39.75068 | -8.74049 | 21538 ft | 307 kts | 12° |
| 2026-05-06 20:37 | 39.77107 | -8.73422 | 21184 ft | 295 kts | 12° |
| 2026-05-06 20:38 | 39.79067 | -8.72820 | 20808 ft | 285 kts | 12° |
| 2026-05-06 20:38 | 39.80923 | -8.72247 | 20973 ft | 265 kts | 12° |
| 2026-05-06 20:38 | 39.82742 | -8.71670 | 21279 ft | 274 kts | 12° |
| 2026-05-06 20:38 | 39.84620 | -8.71069 | 21594 ft | 282 kts | 12° |
| 2026-05-06 20:39 | 39.86562 | -8.70449 | 21887 ft | 291 kts | 12° |
| 2026-05-06 20:39 | 39.88568 | -8.69810 | 22020 ft | 304 kts | 12° |
| 2026-05-06 20:39 | 39.90660 | -8.69151 | 22069 ft | 313 kts | 12° |
| 2026-05-06 20:39 | 39.92793 | -8.68479 | 22101 ft | 317 kts | 12° |
| 2026-05-06 20:40 | 39.94950 | -8.67801 | 21961 ft | 320 kts | 12° |
| 2026-05-06 20:40 | 39.97103 | -8.67125 | 21954 ft | 317 kts | 12° |
| 2026-05-06 20:40 | 39.99221 | -8.66458 | 21958 ft | 317 kts | 12° |
| 2026-05-06 20:40 | 40.01399 | -8.65771 | 21960 ft | 318 kts | 13° |
| 2026-05-06 20:41 | 40.03526 | -8.65099 | 21958 ft | 318 kts | 12° |
| 2026-05-06 20:41 | 40.05679 | -8.64419 | 21957 ft | 318 kts | 12° |
| 2026-05-06 20:41 | 40.07827 | -8.63740 | 21956 ft | 315 kts | 13° |
| 2026-05-06 20:41 | 40.09884 | -8.63087 | 21924 ft | 294 kts | 13° |
| 2026-05-06 20:42 | 40.11808 | -8.62478 | 21851 ft | 275 kts | 12° |
| 2026-05-06 20:42 | 40.13617 | -8.61907 | 21780 ft | 262 kts | 12° |
| 2026-05-06 20:42 | 40.15392 | -8.61347 | 21530 ft | 262 kts | 12° |
| 2026-05-06 20:42 | 40.17149 | -8.60795 | 21405 ft | 258 kts | 12° |
| 2026-05-06 20:43 | 40.18905 | -8.60241 | 21220 ft | 261 kts | 12° |
| 2026-05-06 20:43 | 40.20692 | -8.59678 | 20839 ft | 265 kts | 12° |
| 2026-05-06 20:43 | 40.22481 | -8.59116 | 20461 ft | 263 kts | 12° |
| 2026-05-06 20:43 | 40.24228 | -8.58565 | 20116 ft | 259 kts | 12° |
| 2026-05-06 20:44 | 40.25972 | -8.58013 | 19787 ft | 256 kts | 12° |
| 2026-05-06 20:44 | 40.27692 | -8.57469 | 19439 ft | 253 kts | 12° |
| 2026-05-06 20:44 | 40.29399 | -8.56929 | 19110 ft | 251 kts | 12° |
| 2026-05-06 20:44 | 40.31092 | -8.56393 | 18776 ft | 250 kts | 12° |
| 2026-05-06 20:45 | 40.32780 | -8.55857 | 18454 ft | 249 kts | 12° |
| 2026-05-06 20:45 | 40.34470 | -8.55321 | 18111 ft | 254 kts | 12° |
| 2026-05-06 20:45 | 40.36274 | -8.54750 | 17777 ft | 278 kts | 12° |
| 2026-05-06 20:45 | 40.38197 | -8.54139 | 17395 ft | 288 kts | 12° |
| 2026-05-06 20:46 | 40.40163 | -8.53510 | 16992 ft | 292 kts | 12° |
| 2026-05-06 20:46 | 40.42134 | -8.52877 | 16604 ft | 291 kts | 12° |
| 2026-05-06 20:46 | 40.44100 | -8.52248 | 16213 ft | 290 kts | 13° |
| 2026-05-06 20:46 | 40.46026 | -8.51630 | 15835 ft | 288 kts | 13° |
| 2026-05-06 20:47 | 40.47971 | -8.51006 | 15455 ft | 286 kts | 13° |
| 2026-05-06 20:47 | 40.49912 | -8.50592 | 15194 ft | 278 kts | 359° |
| 2026-05-06 20:47 | 40.51774 | -8.50836 | 14964 ft | 261 kts | 349° |
| 2026-05-06 20:47 | 40.53512 | -8.51251 | 14744 ft | 247 kts | 347° |
| 2026-05-06 20:48 | 40.55166 | -8.51663 | 14517 ft | 236 kts | 348° |
| 2026-05-06 20:48 | 40.56753 | -8.52046 | 14275 ft | 228 kts | 348° |
| 2026-05-06 20:48 | 40.58296 | -8.52412 | 14036 ft | 223 kts | 348° |
| 2026-05-06 20:48 | 40.59818 | -8.52768 | 13789 ft | 223 kts | 348° |
| 2026-05-06 20:49 | 40.61353 | -8.53125 | 13459 ft | 224 kts | 349° |
| 2026-05-06 20:49 | 40.62888 | -8.53479 | 13218 ft | 223 kts | 348° |
| 2026-05-06 20:49 | 40.64415 | -8.53830 | 13001 ft | 223 kts | 349° |
| 2026-05-06 20:49 | 40.65933 | -8.54177 | 12745 ft | 225 kts | 349° |
| 2026-05-06 20:50 | 40.67476 | -8.54530 | 12471 ft | 225 kts | 349° |
| 2026-05-06 20:50 | 40.69018 | -8.54882 | 12203 ft | 224 kts | 349° |
| 2026-05-06 20:50 | 40.70556 | -8.55233 | 11946 ft | 224 kts | 349° |
| 2026-05-06 20:50 | 40.72093 | -8.55582 | 11692 ft | 224 kts | 349° |
| 2026-05-06 20:51 | 40.73630 | -8.55929 | 11441 ft | 224 kts | 349° |
| 2026-05-06 20:51 | 40.75170 | -8.56277 | 11190 ft | 224 kts | 349° |
| 2026-05-06 20:51 | 40.76686 | -8.56620 | 10943 ft | 223 kts | 349° |
| 2026-05-06 20:51 | 40.78216 | -8.56969 | 10694 ft | 223 kts | 349° |
| 2026-05-06 20:52 | 40.79745 | -8.57314 | 10446 ft | 223 kts | 349° |
| 2026-05-06 20:52 | 40.81276 | -8.57656 | 10205 ft | 223 kts | 350° |
| 2026-05-06 20:52 | 40.82801 | -8.57999 | 9964 ft | 222 kts | 350° |
| 2026-05-06 20:52 | 40.84322 | -8.58341 | 9714 ft | 222 kts | 350° |
| 2026-05-06 20:53 | 40.85840 | -8.58682 | 9449 ft | 220 kts | 350° |
| 2026-05-06 20:53 | 40.87275 | -8.59001 | 9199 ft | 219 kts | 350° |
| 2026-05-06 20:53 | 40.88773 | -8.59338 | 8938 ft | 218 kts | 350° |
| 2026-05-06 20:53 | 40.90264 | -8.59673 | 8675 ft | 217 kts | 350° |
| 2026-05-06 20:54 | 40.91743 | -8.60003 | 8415 ft | 215 kts | 350° |
| 2026-05-06 20:54 | 40.93222 | -8.60330 | 8121 ft | 216 kts | 350° |
| 2026-05-06 20:54 | 40.94718 | -8.60661 | 7855 ft | 221 kts | 350° |
| 2026-05-06 20:54 | 40.96257 | -8.61002 | 7685 ft | 228 kts | 350° |
| 2026-05-06 20:55 | 40.97824 | -8.61350 | 7320 ft | 225 kts | 350° |
| 2026-05-06 20:55 | 40.99349 | -8.61692 | 6801 ft | 219 kts | 350° |
| 2026-05-06 20:55 | 41.00831 | -8.62031 | 6308 ft | 214 kts | 350° |
| 2026-05-06 20:55 | 41.02288 | -8.62365 | 5762 ft | 212 kts | 350° |
| 2026-05-06 20:56 | 41.03700 | -8.62688 | 5269 ft | 205 kts | 350° |
| 2026-05-06 20:56 | 41.05098 | -8.63007 | 4689 ft | 202 kts | 350° |
| 2026-05-06 20:56 | 41.06482 | -8.63324 | 4102 ft | 199 kts | 350° |
| 2026-05-06 20:56 | 41.07826 | -8.63661 | 3522 ft | 195 kts | 349° |
| 2026-05-06 20:57 | 41.09129 | -8.64013 | 3074 ft | 187 kts | 349° |
| 2026-05-06 20:57 | 41.10364 | -8.64344 | 2865 ft | 169 kts | 349° |
| 2026-05-06 20:57 | 41.11516 | -8.64646 | 2549 ft | 169 kts | 350° |
| 2026-05-06 20:57 | 41.12599 | -8.64934 | 2445 ft | 151 kts | 349° |
| 2026-05-06 20:58 | 41.13538 | -8.65181 | 2201 ft | 127 kts | 350° |
| 2026-05-06 20:58 | 41.14367 | -8.65397 | 1929 ft | 118 kts | 349° |
| 2026-05-06 20:58 | 41.15147 | -8.65608 | 1739 ft | 114 kts | 350° |
| 2026-05-06 20:58 | 41.15931 | -8.65807 | 1624 ft | 115 kts | 350° |
| 2026-05-06 20:59 | 41.16717 | -8.66003 | 1531 ft | 115 kts | 350° |
| 2026-05-06 20:59 | 41.17510 | -8.66214 | 1420 ft | 116 kts | 349° |
| 2026-05-06 20:59 | 41.18302 | -8.66423 | 1240 ft | 116 kts | 349° |
| 2026-05-06 20:59 | 41.19088 | -8.66622 | 1032 ft | 116 kts | 349° |
| 2026-05-06 21:00 | 41.19604 | -8.66761 | 946 ft | 112 kts | 350° |
| 2026-05-06 21:00 | 41.20371 | -8.66971 | 821 ft | 113 kts | 349° |
| 2026-05-06 21:00 | 41.21136 | -8.67171 | 672 ft | 112 kts | 348° |
| 2026-05-06 21:00 | 41.21929 | -8.67392 | 533 ft | 126 kts | 348° |
| 2026-05-06 21:01 | 41.22767 | -8.67607 | 378 ft | 118 kts | 349° |
| 2026-05-06 21:01 | 41.23560 | -8.67807 | 237 ft | 109 kts | 349° |
| 2026-05-06 21:01 | 41.24195 | -8.67964 | 213 ft | 71 kts | 348° |
| 2026-05-06 21:01 | 41.24609 | -8.68075 | 206 ft | 57 kts | 350° |
| 2026-05-06 21:02 | 41.24928 | -8.68160 | 195 ft | 29 kts | 349° |
| 2026-05-06 21:02 | 41.25112 | -8.68170 | 180 ft | 25 kts | 9° |
| 2026-05-06 21:02 | 41.25249 | -8.68118 | 176 ft | 11 kts | 18° |
| 2026-05-06 21:02 | 41.25277 | -8.68104 | 175 ft | 0 kts | 24° |
| 2026-05-06 21:03 | 41.25296 | -8.68064 | 174 ft | 10 kts | 81° |
| 2026-05-06 21:03 | 41.25254 | -8.68015 | 177 ft | 8 kts | 166° |
| 2026-05-06 21:03 | 41.25180 | -8.67994 | 181 ft | 15 kts | 168° |
| 2026-05-06 21:03 | 41.25049 | -8.67958 | 195 ft | 24 kts | 169° |
| 2026-05-06 21:04 | 41.24883 | -8.67908 | 194 ft | 24 kts | 155° |
| 2026-05-06 21:04 | 41.24750 | -8.67827 | 204 ft | 18 kts | 165° |
| 2026-05-06 21:04 | 41.24631 | -8.67794 | 209 ft | 18 kts | 167° |
| 2026-05-06 21:04 | 41.24487 | -8.67756 | 214 ft | 23 kts | 169° |
| 2026-05-06 21:05 | 41.24338 | -8.67718 | 224 ft | 19 kts | 169° |
| 2026-05-06 21:05 | 41.24258 | -8.67629 | 231 ft | 10 kts | 127° |
| 2026-05-06 21:05 | 41.24222 | -8.67565 | 234 ft | 8 kts | 127° |
| 2026-05-06 21:05 | 41.24176 | -8.67501 | 237 ft | 12 kts | 141° |
| 2026-05-06 21:06 | 41.24078 | -8.67433 | 235 ft | 19 kts | 164° |
| 2026-05-06 21:06 | 41.23955 | -8.67449 | 236 ft | 17 kts | 213° |
| 2026-05-06 21:06 | 41.23841 | -8.67481 | 235 ft | 18 kts | 169° |
| 2026-05-06 21:06 | 41.23736 | -8.67425 | 235 ft | 16 kts | 130° |
| 2026-05-06 21:07 | 41.23650 | -8.67337 | 236 ft | 12 kts | 169° |
| 2026-05-06 21:07 | 41.23598 | -8.67326 | 237 ft | 4 kts | 155° |
| 2026-05-06 21:07 | 41.23593 | -8.67298 | 237 ft | 5 kts | 95° |
| 2026-05-06 21:07 | 41.23590 | -8.67242 | 240 ft | 2 kts | 93° |
| 2026-05-06 21:08 | 41.23590 | -8.67228 | 240 ft | 0 kts | 93° |